createdAt,value
2023-10-09T00:01:03.001Z,8.20
2023-10-09T00:03:54.769Z,8.20
2023-10-09T00:06:38.697Z,8.20
2023-10-09T00:09:19.875Z,8.14
2023-10-09T00:11:58.322Z,8.10
2023-10-09T00:14:35.455Z,8.10
2023-10-09T00:17:21.916Z,8.10
2023-10-09T00:20:01.248Z,8.00
2023-10-09T00:22:39.369Z,8.00
2023-10-09T00:25:16.210Z,8.00
2023-10-09T00:27:49.664Z,8.00
2023-10-09T00:30:23.572Z,7.92
2023-10-09T00:33:01.238Z,7.90
2023-10-09T00:35:47.937Z,7.90
2023-10-09T00:38:25.439Z,7.90
2023-10-09T00:41:11.334Z,7.90
2023-10-09T00:43:45.005Z,7.90
2023-10-09T00:46:25.701Z,7.90
2023-10-09T00:49:04.293Z,8.00
2023-10-09T00:51:37.847Z,8.00
2023-10-09T00:54:16.176Z,8.02
2023-10-09T00:56:58.881Z,8.10
2023-10-09T00:59:32.912Z,8.12
2023-10-09T01:02:06.692Z,8.20
2023-10-09T01:04:42.608Z,8.20
2023-10-09T01:07:17.539Z,8.30
2023-10-09T01:09:52.855Z,8.30
2023-10-09T01:12:25.723Z,8.30
2023-10-09T01:15:01.194Z,8.36
2023-10-09T01:17:38.155Z,8.40
2023-10-09T01:20:18.309Z,8.40
2023-10-09T01:22:52.003Z,8.38
2023-10-09T01:25:25.567Z,8.30
2023-10-09T01:27:58.403Z,8.30
2023-10-09T01:30:31.233Z,8.30
2023-10-09T01:33:14.707Z,8.30
2023-10-09T01:35:50.844Z,8.22
2023-10-09T01:38:33.418Z,8.20
2023-10-09T01:41:09.594Z,8.20
2023-10-09T01:43:45.985Z,8.20
2023-10-09T01:46:21.102Z,8.12
2023-10-09T01:48:55.104Z,8.10
2023-10-09T01:51:34.628Z,8.10
2023-10-09T01:54:07.754Z,8.10
2023-10-09T01:56:41.524Z,8.10
2023-10-09T01:59:15.427Z,8.10
2023-10-09T02:01:49.267Z,8.10
2023-10-09T02:04:23.215Z,8.12
2023-10-09T02:06:56.160Z,8.16
2023-10-09T02:09:32.915Z,8.20
2023-10-09T02:12:06.256Z,8.20
2023-10-09T02:14:42.748Z,8.20
2023-10-09T02:17:21.730Z,8.20
2023-10-09T02:19:54.941Z,8.20
2023-10-09T02:22:28.328Z,8.20
2023-10-09T02:25:01.344Z,8.20
2023-10-09T02:27:48.856Z,8.20
2023-10-09T02:30:30.078Z,8.20
2023-10-09T02:33:10.452Z,8.20
2023-10-09T02:35:44.912Z,8.20
2023-10-09T02:38:18.562Z,8.20
2023-10-09T02:41:19.516Z,8.20
2023-10-09T02:43:56.465Z,8.20
2023-10-09T02:46:32.438Z,8.20
2023-10-09T02:49:07.676Z,8.20
2023-10-09T02:51:43.774Z,8.20
2023-10-09T02:54:37.305Z,8.20
2023-10-09T02:57:17.008Z,8.20
2023-10-09T02:59:52.651Z,8.20
2023-10-09T03:02:26.275Z,8.20
2023-10-09T03:05:00.170Z,8.18
2023-10-09T03:07:32.937Z,8.16
2023-10-09T03:10:11.018Z,8.20
2023-10-09T03:12:44.666Z,8.20
2023-10-09T03:15:17.492Z,8.20
2023-10-09T03:17:50.518Z,8.20
2023-10-09T03:20:23.341Z,8.22
2023-10-09T03:22:57.236Z,8.30
2023-10-09T03:25:30.098Z,8.30
2023-10-09T03:28:04.128Z,8.30
2023-10-09T03:30:38.799Z,8.40
2023-10-09T03:33:12.942Z,8.40
2023-10-09T03:35:46.153Z,8.42
2023-10-09T03:38:19.937Z,8.50
2023-10-09T03:40:53.301Z,8.50
2023-10-09T03:43:26.174Z,8.50
2023-10-09T03:46:00.506Z,8.60
2023-10-09T03:48:38.336Z,8.60
2023-10-09T03:51:12.856Z,8.60
2023-10-09T03:53:45.881Z,8.60
2023-10-09T03:56:19.899Z,8.60
2023-10-09T03:58:54.458Z,8.54
2023-10-09T04:01:29.917Z,8.52
2023-10-09T04:04:05.016Z,8.50
2023-10-09T04:06:39.091Z,8.50
2023-10-09T04:09:28.971Z,8.50
2023-10-09T04:12:21.993Z,8.42
2023-10-09T04:15:02.476Z,8.40
2023-10-09T04:17:37.836Z,8.40
2023-10-09T04:20:38.745Z,8.40
2023-10-09T04:23:17.432Z,8.30
2023-10-09T04:25:52.314Z,8.30
2023-10-09T04:28:25.081Z,8.20
2023-10-09T04:31:00.302Z,8.20
2023-10-09T04:33:44.126Z,8.20
2023-10-09T04:36:24.264Z,8.18
2023-10-09T04:39:23.875Z,8.10
2023-10-09T04:42:16.744Z,8.10
2023-10-09T04:45:21.168Z,8.10
2023-10-09T04:48:08.243Z,8.10
2023-10-09T04:51:04.248Z,8.10
2023-10-09T04:53:45.931Z,8.10
2023-10-09T04:56:18.882Z,8.12
2023-10-09T04:59:04.508Z,8.14
2023-10-09T05:01:45.275Z,8.20
2023-10-09T05:04:36.311Z,8.20
2023-10-09T05:07:23.372Z,8.20
2023-10-09T05:10:11.171Z,8.20
2023-10-09T05:12:48.068Z,8.20
2023-10-09T05:15:28.248Z,8.10
2023-10-09T05:18:10.739Z,8.10
2023-10-09T05:21:19.087Z,8.10
2023-10-09T05:24:12.087Z,8.10
2023-10-09T05:26:53.204Z,8.10
2023-10-09T05:29:49.550Z,8.00
2023-10-09T05:32:29.416Z,8.00
2023-10-09T05:35:17.067Z,8.00
2023-10-09T05:38:00.604Z,8.00
2023-10-09T05:40:33.444Z,8.00
2023-10-09T05:43:07.306Z,8.00
2023-10-09T05:46:02.836Z,8.00
2023-10-09T05:48:55.288Z,7.98
2023-10-09T05:51:54.106Z,7.90
2023-10-09T05:54:40.762Z,7.90
2023-10-09T05:57:31.145Z,7.90
2023-10-09T06:00:21.573Z,7.90
2023-10-09T06:03:12.039Z,7.90
2023-10-09T06:05:43.607Z,7.90
2023-10-09T06:08:25.935Z,7.90
2023-10-09T06:11:27.794Z,7.90
2023-10-09T06:14:14.057Z,7.90
2023-10-09T06:17:01.199Z,7.90
2023-10-09T06:19:44.509Z,7.90
2023-10-09T06:22:35.173Z,7.90
2023-10-09T06:25:12.993Z,7.90
2023-10-09T06:27:59.212Z,7.90
2023-10-09T06:30:36.236Z,7.90
2023-10-09T06:33:30.680Z,7.90
2023-10-09T06:36:09.897Z,8.00
2023-10-09T06:39:14.372Z,8.00
2023-10-09T06:42:07.604Z,8.02
2023-10-09T06:44:54.929Z,8.10
2023-10-09T06:47:27.970Z,8.10
2023-10-09T06:50:26.724Z,8.10
2023-10-09T06:53:06.408Z,8.10
2023-10-09T06:55:51.624Z,8.10
2023-10-09T06:58:28.155Z,8.20
2023-10-09T07:01:17.829Z,8.30
2023-10-09T07:04:01.437Z,8.32
2023-10-09T07:06:48.219Z,8.40
2023-10-09T07:09:22.159Z,8.60
2023-10-09T07:12:00.504Z,8.60
2023-10-09T07:14:51.235Z,8.70
2023-10-09T07:17:45.666Z,8.72
2023-10-09T07:20:37.516Z,8.80
2023-10-09T07:23:16.411Z,8.80
2023-10-09T07:26:00.618Z,8.80
2023-10-09T07:28:49.630Z,8.88
2023-10-09T07:31:31.114Z,8.90
2023-10-09T07:34:08.327Z,8.90
2023-10-09T07:36:42.149Z,9.00
2023-10-09T07:39:18.831Z,9.00
2023-10-09T07:42:16.361Z,9.00
2023-10-09T07:44:54.352Z,9.00
2023-10-09T07:47:47.478Z,9.00
2023-10-09T07:50:22.729Z,9.10
2023-10-09T07:53:15.606Z,9.10
2023-10-09T07:55:55.611Z,9.10
2023-10-09T07:58:28.998Z,9.20
2023-10-09T08:01:17.522Z,9.30
2023-10-09T08:04:03.278Z,9.34
2023-10-09T08:07:01.400Z,9.30
2023-10-09T08:09:48.918Z,9.30
2023-10-09T08:12:39.421Z,9.30
2023-10-09T08:15:30.704Z,9.30
2023-10-09T08:18:11.529Z,9.30
2023-10-09T08:21:13.707Z,9.30
2023-10-09T08:23:50.540Z,9.40
2023-10-09T08:26:48.583Z,9.50
2023-10-09T08:29:21.483Z,9.60
2023-10-09T08:31:58.361Z,9.70
2023-10-09T08:35:01.176Z,9.70
2023-10-09T08:37:31.374Z,9.60
2023-10-09T08:40:08.539Z,9.44
2023-10-09T08:42:41.315Z,9.30
2023-10-09T08:45:17.796Z,9.20
2023-10-09T08:47:53.906Z,9.20
2023-10-09T08:50:29.935Z,9.22
2023-10-09T08:53:04.443Z,9.30
2023-10-09T08:55:38.784Z,9.30
2023-10-09T08:58:17.430Z,9.30
2023-10-09T09:00:50.535Z,9.22
2023-10-09T09:03:25.387Z,9.20
2023-10-09T09:06:06.049Z,9.10
2023-10-09T09:08:38.156Z,9.10
2023-10-09T09:11:18.764Z,9.06
2023-10-09T09:14:08.754Z,9.00
2023-10-09T09:16:49.707Z,9.00
2023-10-09T09:19:33.417Z,9.00
2023-10-09T09:22:13.897Z,8.96
2023-10-09T09:25:04.523Z,8.90
2023-10-09T09:27:56.067Z,8.90
2023-10-09T09:30:34.640Z,8.90
2023-10-09T09:33:31.860Z,9.00
2023-10-09T09:36:06.762Z,9.00
2023-10-09T09:38:49.959Z,9.00
2023-10-09T09:41:26.534Z,9.00
2023-10-09T09:44:01.883Z,8.90
2023-10-09T09:46:37.368Z,9.00
2023-10-09T09:49:18.267Z,9.00
2023-10-09T09:51:51.410Z,9.00
2023-10-09T09:54:27.913Z,9.00
2023-10-09T09:57:02.321Z,9.00
2023-10-09T09:59:38.086Z,9.00
2023-10-09T10:02:13.111Z,9.00
2023-10-09T10:04:50.971Z,8.96
2023-10-09T10:07:26.632Z,9.00
2023-10-09T10:09:59.612Z,9.02
2023-10-09T10:13:02.898Z,9.14
2023-10-09T10:16:14.641Z,9.22
2023-10-09T10:19:15.955Z,9.26
2023-10-09T10:21:51.558Z,9.20
2023-10-09T10:24:54.177Z,9.30
2023-10-09T10:27:34.506Z,9.40
2023-10-09T10:30:37.960Z,9.36
2023-10-09T10:33:17.665Z,9.30
2023-10-09T10:35:54.226Z,9.30
2023-10-09T10:38:38.001Z,9.30
2023-10-09T10:41:19.487Z,9.30
2023-10-09T10:44:02.638Z,9.30
2023-10-09T10:46:43.350Z,9.30
2023-10-09T10:49:22.051Z,9.26
2023-10-09T10:52:03.089Z,9.20
2023-10-09T10:54:48.555Z,9.20
2023-10-09T10:57:30.809Z,9.20
2023-10-09T11:00:34.699Z,9.10
2023-10-09T11:03:20.664Z,9.10
2023-10-09T11:05:54.010Z,9.12
2023-10-09T11:08:33.494Z,9.20
2023-10-09T11:11:20.888Z,9.24
2023-10-09T11:13:57.692Z,9.30
2023-10-09T11:16:44.364Z,9.40
2023-10-09T11:19:34.333Z,9.50
2023-10-09T11:22:29.763Z,9.60
2023-10-09T11:25:13.809Z,9.70
2023-10-09T11:27:52.594Z,9.80
2023-10-09T11:30:35.803Z,9.90
2023-10-09T11:33:16.874Z,10.00
2023-10-09T11:36:00.352Z,10.08
2023-10-09T11:38:40.736Z,10.10
2023-10-09T11:41:24.536Z,10.30
2023-10-09T11:43:59.253Z,10.40
2023-10-09T11:46:49.918Z,10.50
2023-10-09T11:49:45.621Z,10.56
2023-10-09T11:52:39.032Z,10.52
2023-10-09T11:55:16.312Z,10.50
2023-10-09T11:57:51.564Z,10.50
2023-10-09T12:00:30.640Z,10.60
2023-10-09T12:03:07.218Z,10.60
2023-10-09T12:05:43.979Z,10.60
2023-10-09T12:08:17.865Z,10.60
2023-10-09T12:10:50.665Z,10.60
2023-10-09T12:13:24.368Z,10.60
2023-10-09T12:15:59.190Z,10.60
2023-10-09T12:18:36.050Z,10.66
2023-10-09T12:21:09.278Z,10.70
2023-10-09T12:23:44.880Z,10.70
2023-10-09T12:26:18.019Z,10.70
2023-10-09T12:28:51.460Z,10.68
2023-10-09T12:31:41.361Z,10.60
2023-10-09T12:34:17.371Z,10.60
2023-10-09T12:36:51.776Z,10.56
2023-10-09T12:39:24.749Z,10.60
2023-10-09T12:42:00.063Z,10.60
2023-10-09T12:44:32.923Z,10.60
2023-10-09T12:47:06.210Z,10.60
2023-10-09T12:49:42.380Z,10.66
2023-10-09T12:52:18.144Z,10.70
2023-10-09T12:54:51.053Z,10.70
2023-10-09T12:57:25.132Z,10.76
2023-10-09T12:59:58.375Z,10.90
2023-10-09T13:02:31.333Z,10.90
2023-10-09T13:05:07.174Z,10.90
2023-10-09T13:07:40.024Z,11.00
2023-10-09T13:10:14.807Z,11.00
2023-10-09T13:12:47.868Z,10.90
2023-10-09T13:15:22.285Z,10.80
2023-10-09T13:17:55.094Z,10.80
2023-10-09T13:20:29.110Z,10.80
2023-10-09T13:23:02.842Z,10.80
2023-10-09T13:25:41.166Z,10.80
2023-10-09T13:28:21.964Z,10.84
2023-10-09T13:30:56.351Z,10.84
2023-10-09T13:33:38.083Z,10.80
2023-10-09T13:36:18.769Z,10.80
2023-10-09T13:38:51.722Z,10.88
2023-10-09T13:41:27.207Z,10.90
2023-10-09T13:44:00.320Z,11.00
2023-10-09T13:46:33.114Z,11.10
2023-10-09T13:49:10.366Z,11.20
2023-10-09T13:51:45.981Z,11.40
2023-10-09T13:54:22.395Z,11.50
2023-10-09T13:56:55.474Z,11.60
2023-10-09T13:59:28.426Z,11.70
2023-10-09T14:02:04.105Z,11.80
2023-10-09T14:04:36.969Z,11.90
2023-10-09T14:07:09.813Z,11.88
2023-10-09T14:09:46.767Z,11.80
2023-10-09T14:12:20.707Z,11.70
2023-10-09T14:14:55.259Z,11.62
2023-10-09T14:17:30.002Z,11.60
2023-10-09T14:20:23.294Z,11.60
2023-10-09T14:22:56.056Z,11.60
2023-10-09T14:25:31.268Z,11.50
2023-10-09T14:28:08.670Z,11.40
2023-10-09T14:30:46.015Z,11.40
2023-10-09T14:33:24.110Z,11.30
2023-10-09T14:35:59.457Z,11.30
2023-10-09T14:38:34.300Z,11.20
2023-10-09T14:41:08.819Z,11.20
2023-10-09T14:43:42.688Z,11.10
2023-10-09T14:46:24.625Z,11.00
2023-10-09T14:48:58.514Z,10.96
2023-10-09T14:51:31.979Z,10.90
2023-10-09T14:54:05.000Z,10.82
2023-10-09T14:56:38.980Z,10.80
2023-10-09T14:59:12.572Z,10.80
2023-10-09T15:01:45.784Z,10.70
2023-10-09T15:04:18.693Z,10.70
2023-10-09T15:06:52.562Z,10.60
2023-10-09T15:09:29.611Z,10.60
2023-10-09T15:12:02.725Z,10.50
2023-10-09T15:14:35.777Z,10.50
2023-10-09T15:17:09.116Z,10.48
2023-10-09T15:19:41.921Z,10.40
2023-10-09T15:22:15.590Z,10.30
2023-10-09T15:24:48.352Z,10.30
2023-10-09T15:27:21.214Z,10.30
2023-10-09T15:29:54.119Z,10.30
2023-10-09T15:32:26.967Z,10.20
2023-10-09T15:35:03.907Z,10.10
2023-10-09T15:37:36.795Z,10.10
2023-10-09T15:40:15.560Z,10.00
2023-10-09T15:42:51.247Z,9.90
2023-10-09T15:45:25.744Z,9.90
2023-10-09T15:48:00.891Z,9.90
2023-10-09T15:50:35.691Z,9.90
2023-10-09T15:53:09.359Z,9.90
2023-10-09T15:55:42.212Z,9.90
2023-10-09T15:58:16.422Z,9.90
2023-10-09T16:00:50.356Z,9.80
2023-10-09T16:03:25.690Z,9.70
2023-10-09T16:06:01.402Z,9.60
2023-10-09T16:08:34.424Z,9.60
2023-10-09T16:11:08.807Z,9.50
2023-10-09T16:13:41.726Z,9.58
2023-10-09T16:16:15.718Z,9.60
2023-10-09T16:18:48.956Z,9.60
2023-10-09T16:21:21.735Z,9.60
2023-10-09T16:23:55.339Z,9.60
2023-10-09T16:26:29.562Z,9.60
2023-10-09T16:29:02.342Z,9.64
2023-10-09T16:31:39.659Z,9.70
2023-10-09T16:34:15.934Z,9.70
2023-10-09T16:36:48.882Z,9.70
2023-10-09T16:39:24.104Z,9.70
2023-10-09T16:41:58.746Z,9.70
2023-10-09T16:44:31.886Z,9.80
2023-10-09T16:47:05.024Z,9.80
2023-10-09T16:49:39.966Z,9.80
2023-10-09T16:52:13.458Z,9.80
2023-10-09T16:54:46.390Z,9.70
2023-10-09T16:57:19.560Z,9.70
2023-10-09T16:59:53.369Z,9.60
2023-10-09T17:02:28.982Z,9.60
2023-10-09T17:05:04.579Z,9.64
2023-10-09T17:07:40.627Z,9.70
2023-10-09T17:10:17.224Z,9.70
2023-10-09T17:12:53.391Z,9.70
2023-10-09T17:15:34.282Z,9.60
2023-10-09T17:18:08.295Z,9.60
2023-10-09T17:20:50.110Z,9.66
2023-10-09T17:23:23.077Z,9.64
2023-10-09T17:25:59.674Z,9.70
2023-10-09T17:28:32.695Z,9.70
2023-10-09T17:31:09.190Z,9.70
2023-10-09T17:33:44.725Z,9.66
2023-10-09T17:36:18.191Z,9.66
2023-10-09T17:38:52.148Z,9.70
2023-10-09T17:41:25.433Z,9.70
2023-10-09T17:43:59.442Z,9.70
2023-10-09T17:46:32.507Z,9.70
2023-10-09T17:49:06.719Z,9.70
2023-10-09T17:51:39.481Z,9.70
2023-10-09T17:54:14.786Z,9.70
2023-10-09T17:56:48.696Z,9.66
2023-10-09T17:59:21.528Z,9.62
2023-10-09T18:01:54.364Z,9.60
2023-10-09T18:04:27.441Z,9.60
2023-10-09T18:07:00.083Z,9.60
2023-10-09T18:09:35.104Z,9.60
2023-10-09T18:12:08.533Z,9.60
2023-10-09T18:14:41.393Z,9.60
2023-10-09T18:17:21.105Z,9.60
2023-10-09T18:19:54.424Z,9.60
2023-10-09T18:22:30.963Z,9.60
2023-10-09T18:25:03.760Z,9.60
2023-10-09T18:27:36.719Z,9.50
2023-10-09T18:30:13.241Z,9.50
2023-10-09T18:32:48.807Z,9.40
2023-10-09T18:35:21.698Z,9.50
2023-10-09T18:38:00.168Z,9.50
2023-10-09T18:40:33.328Z,9.50
2023-10-09T18:43:09.663Z,9.44
2023-10-09T18:45:45.349Z,9.40
2023-10-09T18:48:23.058Z,9.40
2023-10-09T18:50:56.072Z,9.40
2023-10-09T18:53:31.018Z,9.40
2023-10-09T18:56:07.134Z,9.40
2023-10-09T18:58:39.949Z,9.40
2023-10-09T19:01:15.202Z,9.40
2023-10-09T19:03:50.744Z,9.40
2023-10-09T19:06:25.391Z,9.40
2023-10-09T19:08:59.794Z,9.40
2023-10-09T19:11:33.430Z,9.40
2023-10-09T19:14:09.715Z,9.40
2023-10-09T19:16:42.895Z,9.40
2023-10-09T19:19:16.239Z,9.50
2023-10-09T19:21:49.251Z,9.50
2023-10-09T19:24:21.987Z,9.50
2023-10-09T19:26:54.713Z,9.52
2023-10-09T19:29:28.015Z,9.54
2023-10-09T19:32:01.747Z,9.60
2023-10-09T19:34:35.972Z,9.60
2023-10-09T19:37:09.356Z,9.60
2023-10-09T19:39:42.896Z,9.60
2023-10-09T19:42:16.016Z,9.50
2023-10-09T19:44:49.142Z,9.60
2023-10-09T19:47:24.533Z,9.60
2023-10-09T19:49:57.746Z,9.60
2023-10-09T19:52:31.656Z,9.56
2023-10-09T19:55:05.249Z,9.50
2023-10-09T19:57:40.037Z,9.50
2023-10-09T20:00:23.141Z,9.60
2023-10-09T20:02:59.174Z,9.50
2023-10-09T20:05:32.191Z,9.50
2023-10-09T20:08:05.439Z,9.50
2023-10-09T20:10:39.336Z,9.40
2023-10-09T20:13:13.030Z,9.40
2023-10-09T20:15:47.114Z,9.40
2023-10-09T20:18:21.007Z,9.40
2023-10-09T20:20:54.131Z,9.40
2023-10-09T20:23:27.504Z,9.40
2023-10-09T20:26:08.201Z,9.40
2023-10-09T20:28:41.291Z,9.40
2023-10-09T20:31:14.241Z,9.40
2023-10-09T20:33:47.881Z,9.40
2023-10-09T20:36:20.846Z,9.40
2023-10-09T20:38:54.473Z,9.40
2023-10-09T20:41:27.402Z,9.40
2023-10-09T20:44:00.704Z,9.40
2023-10-09T20:46:33.474Z,9.40
2023-10-09T20:49:06.642Z,9.40
2023-10-09T20:51:54.339Z,9.40
2023-10-09T20:54:29.782Z,9.40
2023-10-09T20:57:03.216Z,9.40
2023-10-09T20:59:36.042Z,9.40
2023-10-09T21:02:08.938Z,9.40
2023-10-09T21:04:41.809Z,9.40
2023-10-09T21:07:14.519Z,9.40
2023-10-09T21:09:49.182Z,9.40
2023-10-09T21:12:21.961Z,9.40
2023-10-09T21:14:54.881Z,9.46
2023-10-09T21:17:27.890Z,9.50
2023-10-09T21:20:00.882Z,9.50
2023-10-09T21:22:33.771Z,9.50
2023-10-09T21:25:07.695Z,9.40
2023-10-09T21:27:42.298Z,9.40
2023-10-09T21:30:17.001Z,9.40
2023-10-09T21:32:50.716Z,9.40
2023-10-09T21:35:28.892Z,9.40
2023-10-09T21:38:02.511Z,9.40
2023-10-09T21:40:37.870Z,9.40
2023-10-09T21:43:10.910Z,9.40
2023-10-09T21:45:46.226Z,9.40
2023-10-09T21:48:19.383Z,9.40
2023-10-09T21:50:52.100Z,9.32
2023-10-09T21:53:24.890Z,9.30
2023-10-09T21:56:05.709Z,9.30
2023-10-09T21:58:38.692Z,9.30
2023-10-09T22:01:14.248Z,9.30
2023-10-09T22:03:49.492Z,9.36
2023-10-09T22:06:25.404Z,9.40
2023-10-09T22:08:58.717Z,9.40
2023-10-09T22:11:31.511Z,9.38
2023-10-09T22:14:04.531Z,9.30
2023-10-09T22:16:39.696Z,9.30
2023-10-09T22:19:14.989Z,9.30
2023-10-09T22:21:49.198Z,9.26
2023-10-09T22:24:22.197Z,9.28
2023-10-09T22:26:55.145Z,9.30
2023-10-09T22:29:29.054Z,9.30
2023-10-09T22:32:02.011Z,9.32
2023-10-09T22:34:38.028Z,9.40
2023-10-09T22:37:15.779Z,9.40
2023-10-09T22:39:49.311Z,9.40
2023-10-09T22:42:24.199Z,9.40
2023-10-09T22:44:57.712Z,9.40
2023-10-09T22:47:34.340Z,9.40
2023-10-09T22:50:18.942Z,9.30
2023-10-09T22:52:54.341Z,9.30
2023-10-09T22:55:32.843Z,9.30
2023-10-09T22:58:11.276Z,9.30
2023-10-09T23:00:50.379Z,9.22
2023-10-09T23:03:29.358Z,9.20
2023-10-09T23:06:10.582Z,9.20
2023-10-09T23:08:44.341Z,9.20
2023-10-09T23:11:26.781Z,9.20
2023-10-09T23:14:16.510Z,9.20
2023-10-09T23:16:55.789Z,9.20
2023-10-09T23:19:41.787Z,9.20
2023-10-09T23:22:15.660Z,9.20
2023-10-09T23:24:54.893Z,9.20
2023-10-09T23:27:48.915Z,9.14
2023-10-09T23:30:28.705Z,9.14
2023-10-09T23:33:12.837Z,9.10
2023-10-09T23:35:52.414Z,9.10
2023-10-09T23:38:35.263Z,9.10
2023-10-09T23:41:11.090Z,9.10
2023-10-09T23:43:47.677Z,9.10
2023-10-09T23:46:25.106Z,9.10
2023-10-09T23:48:59.159Z,9.10
2023-10-09T23:51:32.044Z,9.10
2023-10-09T23:54:11.468Z,9.10
2023-10-09T23:56:53.850Z,9.10
2023-10-09T23:59:39.558Z,9.10
